Airfield :
LOGIN :

Register | Disclaimer

   EN    FR    IT 

 










Legend :    VFR   Marginal VFR   IFR   Intensive IFR   Very Intensive IFR
Visi :
Ceiling :
>= 8 km
>= 3000ft
5 to 8 km
1000 to 3000 ft
1500m to 5 km
500 to 1000 ft
800 to 1500m
200 to 500 ft
< 800m
< 200 ft
Symbols :   Thunderstorms  Fog  Heavy snow  Heavy precipitations  Wind > 20 kt
SIGMETs :     Misc.  Thunderstorms  Icing  Turbulence  Mountain Waves  Volcanic Ashes







- Airport Elevation : 23 ft
- IATA code : XFW


EDHI - Hamburg Finkenwerder

CURRENT METAR :
  • 291250Z VRB03KT CAVOK 24/15 Q1013

EXPIRED METARs :
  • 291220Z VRB03KT CAVOK 22/14 Q1013
  • 291150Z 28004KT 250V350 CAVOK 21/15 Q1013
  • 291120Z 28004KT 220V320 CAVOK 21/14 Q1014
  • 291050Z VRB04KT CAVOK 21/14 Q1013
  • 291020Z 14004KT 090V200 CAVOK 21/15 Q1013

TAF TAF EDHI
Valid from the 29 at 12:00 until the 29 at 21:00 UTC


291100Z 2912/2921 VRB03KT CAVOK
BECMG 2916/2918 07005KT
No reported NOTAMs for that airfield.



MET'MAP, your aeronautical weather chart ! - Copyright ORBIFLY December 2007 - Disclaimer

ORBIFLY MET'MAP TEAM :

Programming & Development : Alexandra Zaïnal
Concept & Development : Baudouin d'Aumeries
Co-Development & Prog : Marc-Olivier Méhu
Technical & hardware support : Manuel Goepfert

Contact : metmap@orbifly.com




SOURCES & CREDITS :

   NOAA